sensor_id;sensor_type;location;lat;lon;timestamp;P1;durP1;ratioP1;P2;durP2;ratioP2
36303;SDS011;22335;49.800;8.596;2022-07-21T00:01:33;14.75;;;13.25;;
36303;SDS011;22335;49.800;8.596;2022-07-21T00:08:22;13.07;;;11.85;;
36303;SDS011;22335;49.800;8.596;2022-07-21T00:15:08;13.27;;;12.07;;
36303;SDS011;22335;49.800;8.596;2022-07-21T00:21:54;16.40;;;12.35;;
36303;SDS011;22335;49.800;8.596;2022-07-21T00:28:43;13.68;;;12.13;;
36303;SDS011;22335;49.800;8.596;2022-07-21T00:35:28;20.05;;;12.90;;
36303;SDS011;22335;49.800;8.596;2022-07-21T00:42:19;15.80;;;14.15;;
36303;SDS011;22335;49.800;8.596;2022-07-21T00:49:08;14.70;;;13.30;;
36303;SDS011;22335;49.800;8.596;2022-07-21T00:55:54;15.57;;;13.95;;
36303;SDS011;22335;49.800;8.596;2022-07-21T01:02:40;17.08;;;15.32;;
36303;SDS011;22335;49.800;8.596;2022-07-21T01:09:28;17.38;;;15.57;;
36303;SDS011;22335;49.800;8.596;2022-07-21T01:16:14;18.67;;;16.88;;
36303;SDS011;22335;49.800;8.596;2022-07-21T01:23:03;19.92;;;17.98;;
36303;SDS011;22335;49.800;8.596;2022-07-21T01:29:48;21.77;;;19.48;;
36303;SDS011;22335;49.800;8.596;2022-07-21T01:36:34;22.83;;;20.52;;
36303;SDS011;22335;49.800;8.596;2022-07-21T01:43:22;22.15;;;19.88;;
36303;SDS011;22335;49.800;8.596;2022-07-21T01:50:08;24.30;;;20.25;;
36303;SDS011;22335;49.800;8.596;2022-07-21T01:56:55;21.40;;;18.98;;
36303;SDS011;22335;49.800;8.596;2022-07-21T02:03:43;21.77;;;19.48;;
36303;SDS011;22335;49.800;8.596;2022-07-21T02:10:29;22.58;;;19.10;;
36303;SDS011;22335;49.800;8.596;2022-07-21T02:17:15;21.33;;;19.23;;
36303;SDS011;22335;49.800;8.596;2022-07-21T02:24:03;27.88;;;20.13;;
36303;SDS011;22335;49.800;8.596;2022-07-21T02:30:56;26.58;;;19.63;;
36303;SDS011;22335;49.800;8.596;2022-07-21T02:37:42;21.83;;;19.70;;
36303;SDS011;22335;49.800;8.596;2022-07-21T02:44:31;25.02;;;20.60;;
36303;SDS011;22335;49.800;8.596;2022-07-21T03:05:08;28.42;;;19.67;;
36303;SDS011;22335;49.800;8.596;2022-07-21T03:11:54;22.33;;;19.88;;
36303;SDS011;22335;49.800;8.596;2022-07-21T03:18:39;20.42;;;18.27;;
36303;SDS011;22335;49.800;8.596;2022-07-21T03:32:13;14.95;;;13.52;;
36303;SDS011;22335;49.800;8.596;2022-07-21T03:38:59;18.58;;;16.20;;
36303;SDS011;22335;49.800;8.596;2022-07-21T03:52:35;20.08;;;14.98;;
36303;SDS011;22335;49.800;8.596;2022-07-21T03:59:20;14.57;;;13.07;;
36303;SDS011;22335;49.800;8.596;2022-07-21T04:06:09;12.52;;;11.30;;
36303;SDS011;22335;49.800;8.596;2022-07-21T04:12:55;10.20;;;9.35;;
36303;SDS011;22335;49.800;8.596;2022-07-21T04:19:43;11.43;;;10.15;;
36303;SDS011;22335;49.800;8.596;2022-07-21T04:26:31;11.57;;;10.57;;
36303;SDS011;22335;49.800;8.596;2022-07-21T04:33:16;14.90;;;13.35;;
36303;SDS011;22335;49.800;8.596;2022-07-21T04:46:53;15.63;;;12.90;;
36303;SDS011;22335;49.800;8.596;2022-07-21T04:53:38;12.73;;;11.43;;
36303;SDS011;22335;49.800;8.596;2022-07-21T05:07:13;13.15;;;10.00;;
36303;SDS011;22335;49.800;8.596;2022-07-21T05:13:59;10.35;;;9.32;;
36303;SDS011;22335;49.800;8.596;2022-07-21T05:27:44;10.68;;;9.55;;
36303;SDS011;22335;49.800;8.596;2022-07-21T05:34:29;11.05;;;9.95;;
36303;SDS011;22335;49.800;8.596;2022-07-21T05:41:15;13.63;;;11.23;;
36303;SDS011;22335;49.800;8.596;2022-07-21T05:54:49;13.48;;;12.07;;
36303;SDS011;22335;49.800;8.596;2022-07-21T06:01:35;15.60;;;11.55;;
36303;SDS011;22335;49.800;8.596;2022-07-21T06:08:23;15.75;;;14.25;;
36303;SDS011;22335;49.800;8.596;2022-07-21T06:15:09;14.27;;;12.50;;
36303;SDS011;22335;49.800;8.596;2022-07-21T06:21:55;11.13;;;10.02;;
36303;SDS011;22335;49.800;8.596;2022-07-21T06:28:44;14.73;;;11.95;;
36303;SDS011;22335;49.800;8.596;2022-07-21T06:35:29;14.13;;;12.85;;
36303;SDS011;22335;49.800;8.596;2022-07-21T06:42:15;13.82;;;12.38;;
36303;SDS011;22335;49.800;8.596;2022-07-21T06:55:48;15.07;;;12.43;;
36303;SDS011;22335;49.800;8.596;2022-07-21T07:02:43;14.07;;;12.67;;
36303;SDS011;22335;49.800;8.596;2022-07-21T07:09:31;15.38;;;12.43;;
36303;SDS011;22335;49.800;8.596;2022-07-21T07:16:17;13.80;;;10.95;;
36303;SDS011;22335;49.800;8.596;2022-07-21T07:23:02;12.25;;;11.05;;
36303;SDS011;22335;49.800;8.596;2022-07-21T07:29:51;12.55;;;10.98;;
36303;SDS011;22335;49.800;8.596;2022-07-21T07:36:36;11.27;;;10.40;;
36303;SDS011;22335;49.800;8.596;2022-07-21T07:43:25;11.75;;;10.57;;
36303;SDS011;22335;49.800;8.596;2022-07-21T07:50:13;14.25;;;11.13;;
36303;SDS011;22335;49.800;8.596;2022-07-21T07:56:59;11.43;;;10.38;;
36303;SDS011;22335;49.800;8.596;2022-07-21T08:03:45;11.75;;;10.75;;
36303;SDS011;22335;49.800;8.596;2022-07-21T08:10:34;11.77;;;10.45;;
36303;SDS011;22335;49.800;8.596;2022-07-21T08:17:22;11.70;;;10.70;;
36303;SDS011;22335;49.800;8.596;2022-07-21T08:24:08;11.20;;;10.00;;
36303;SDS011;22335;49.800;8.596;2022-07-21T08:37:52;96.35;;;28.13;;
36303;SDS011;22335;49.800;8.596;2022-07-21T08:44:41;11.02;;;10.02;;
36303;SDS011;22335;49.800;8.596;2022-07-21T08:51:29;10.60;;;9.57;;
36303;SDS011;22335;49.800;8.596;2022-07-21T08:58:17;8.60;;;7.97;;
36303;SDS011;22335;49.800;8.596;2022-07-21T09:05:03;10.38;;;9.02;;
36303;SDS011;22335;49.800;8.596;2022-07-21T09:11:54;10.25;;;8.90;;
36303;SDS011;22335;49.800;8.596;2022-07-21T09:18:48;9.38;;;8.48;;
36303;SDS011;22335;49.800;8.596;2022-07-21T09:25:37;11.83;;;10.77;;
36303;SDS011;22335;49.800;8.596;2022-07-21T09:32:28;10.75;;;9.75;;
36303;SDS011;22335;49.800;8.596;2022-07-21T09:39:15;10.50;;;9.60;;
36303;SDS011;22335;49.800;8.596;2022-07-21T09:46:03;10.98;;;9.98;;
36303;SDS011;22335;49.800;8.596;2022-07-21T09:52:52;10.30;;;9.40;;
36303;SDS011;22335;49.800;8.596;2022-07-21T09:59:39;9.73;;;8.93;;
36303;SDS011;22335;49.800;8.596;2022-07-21T10:06:48;9.55;;;8.52;;
36303;SDS011;22335;49.800;8.596;2022-07-21T10:13:37;11.18;;;8.45;;
36303;SDS011;22335;49.800;8.596;2022-07-21T10:20:24;9.00;;;8.07;;
36303;SDS011;22335;49.800;8.596;2022-07-21T10:27:17;8.80;;;8.20;;
36303;SDS011;22335;49.800;8.596;2022-07-21T10:34:36;10.77;;;8.32;;
36303;SDS011;22335;49.800;8.596;2022-07-21T10:41:36;9.23;;;8.07;;
36303;SDS011;22335;49.800;8.596;2022-07-21T10:55:37;8.43;;;7.60;;
36303;SDS011;22335;49.800;8.596;2022-07-21T11:02:29;9.20;;;8.30;;
36303;SDS011;22335;49.800;8.596;2022-07-21T11:09:17;8.20;;;7.35;;
36303;SDS011;22335;49.800;8.596;2022-07-21T11:16:06;7.45;;;6.88;;
36303;SDS011;22335;49.800;8.596;2022-07-21T11:22:52;7.22;;;6.65;;
36303;SDS011;22335;49.800;8.596;2022-07-21T11:29:45;7.75;;;7.07;;
36303;SDS011;22335;49.800;8.596;2022-07-21T11:36:34;7.13;;;6.53;;
36303;SDS011;22335;49.800;8.596;2022-07-21T11:43:20;7.32;;;6.82;;
36303;SDS011;22335;49.800;8.596;2022-07-21T11:50:24;7.93;;;7.22;;
36303;SDS011;22335;49.800;8.596;2022-07-21T11:57:14;7.35;;;6.90;;
36303;SDS011;22335;49.800;8.596;2022-07-21T12:04:02;6.95;;;6.43;;
36303;SDS011;22335;49.800;8.596;2022-07-21T12:10:49;8.43;;;7.63;;
36303;SDS011;22335;49.800;8.596;2022-07-21T12:17:38;8.10;;;7.43;;
36303;SDS011;22335;49.800;8.596;2022-07-21T12:31:37;8.15;;;7.55;;
36303;SDS011;22335;49.800;8.596;2022-07-21T12:38:35;7.93;;;7.22;;
36303;SDS011;22335;49.800;8.596;2022-07-21T12:45:21;8.45;;;7.47;;
36303;SDS011;22335;49.800;8.596;2022-07-21T12:52:07;7.65;;;6.97;;
36303;SDS011;22335;49.800;8.596;2022-07-21T12:58:56;9.00;;;8.13;;
36303;SDS011;22335;49.800;8.596;2022-07-21T13:05:44;7.95;;;7.25;;
36303;SDS011;22335;49.800;8.596;2022-07-21T13:12:30;8.52;;;7.82;;
36303;SDS011;22335;49.800;8.596;2022-07-21T13:19:18;9.73;;;8.82;;
36303;SDS011;22335;49.800;8.596;2022-07-21T13:26:04;9.25;;;8.45;;
36303;SDS011;22335;49.800;8.596;2022-07-21T13:32:50;9.02;;;8.23;;
36303;SDS011;22335;49.800;8.596;2022-07-21T13:39:38;10.43;;;9.60;;
36303;SDS011;22335;49.800;8.596;2022-07-21T13:46:43;9.73;;;8.93;;
36303;SDS011;22335;49.800;8.596;2022-07-21T13:53:29;10.23;;;9.38;;
36303;SDS011;22335;49.800;8.596;2022-07-21T14:00:17;9.98;;;9.15;;
36303;SDS011;22335;49.800;8.596;2022-07-21T14:07:03;10.90;;;8.98;;
36303;SDS011;22335;49.800;8.596;2022-07-21T14:13:48;9.77;;;8.98;;
36303;SDS011;22335;49.800;8.596;2022-07-21T14:20:37;9.35;;;8.55;;
36303;SDS011;22335;49.800;8.596;2022-07-21T14:27:24;8.80;;;8.00;;
36303;SDS011;22335;49.800;8.596;2022-07-21T14:34:10;9.43;;;8.50;;
36303;SDS011;22335;49.800;8.596;2022-07-21T14:40:58;8.65;;;7.85;;
36303;SDS011;22335;49.800;8.596;2022-07-21T14:47:44;7.57;;;6.97;;
36303;SDS011;22335;49.800;8.596;2022-07-21T14:54:30;8.43;;;7.72;;
36303;SDS011;22335;49.800;8.596;2022-07-21T15:01:19;8.70;;;7.78;;
36303;SDS011;22335;49.800;8.596;2022-07-21T15:08:05;8.73;;;7.93;;
36303;SDS011;22335;49.800;8.596;2022-07-21T15:14:54;10.25;;;7.78;;
36303;SDS011;22335;49.800;8.596;2022-07-21T15:21:42;8.57;;;7.72;;
36303;SDS011;22335;49.800;8.596;2022-07-21T15:28:28;9.52;;;7.65;;
36303;SDS011;22335;49.800;8.596;2022-07-21T15:35:14;7.47;;;6.95;;
36303;SDS011;22335;49.800;8.596;2022-07-21T15:42:02;7.35;;;6.63;;
36303;SDS011;22335;49.800;8.596;2022-07-21T15:48:52;7.60;;;6.90;;
36303;SDS011;22335;49.800;8.596;2022-07-21T15:55:37;6.75;;;6.25;;
36303;SDS011;22335;49.800;8.596;2022-07-21T16:02:31;7.35;;;6.65;;
36303;SDS011;22335;49.800;8.596;2022-07-21T16:09:18;7.97;;;6.75;;
36303;SDS011;22335;49.800;8.596;2022-07-21T16:16:03;8.00;;;6.40;;
36303;SDS011;22335;49.800;8.596;2022-07-21T16:22:53;6.88;;;6.30;;
36303;SDS011;22335;49.800;8.596;2022-07-21T16:29:39;6.85;;;6.15;;
36303;SDS011;22335;49.800;8.596;2022-07-21T16:36:24;6.70;;;6.20;;
36303;SDS011;22335;49.800;8.596;2022-07-21T16:43:12;7.00;;;6.50;;
36303;SDS011;22335;49.800;8.596;2022-07-21T16:49:58;7.28;;;6.68;;
36303;SDS011;22335;49.800;8.596;2022-07-21T16:56:43;7.00;;;6.40;;
36303;SDS011;22335;49.800;8.596;2022-07-21T17:03:32;7.07;;;6.32;;
36303;SDS011;22335;49.800;8.596;2022-07-21T17:10:18;7.35;;;6.75;;
36303;SDS011;22335;49.800;8.596;2022-07-21T17:17:04;7.22;;;6.45;;
36303;SDS011;22335;49.800;8.596;2022-07-21T17:23:52;7.38;;;5.90;;
36303;SDS011;22335;49.800;8.596;2022-07-21T17:30:38;6.60;;;6.00;;
36303;SDS011;22335;49.800;8.596;2022-07-21T17:37:25;7.43;;;6.68;;
36303;SDS011;22335;49.800;8.596;2022-07-21T17:44:13;7.63;;;6.85;;
36303;SDS011;22335;49.800;8.596;2022-07-21T17:50:59;7.45;;;6.70;;
36303;SDS011;22335;49.800;8.596;2022-07-21T17:57:45;6.90;;;6.30;;
36303;SDS011;22335;49.800;8.596;2022-07-21T18:04:46;7.82;;;7.00;;
36303;SDS011;22335;49.800;8.596;2022-07-21T18:11:31;8.23;;;7.53;;
36303;SDS011;22335;49.800;8.596;2022-07-21T18:18:17;8.18;;;7.38;;
36303;SDS011;22335;49.800;8.596;2022-07-21T18:25:06;8.00;;;7.20;;
36303;SDS011;22335;49.800;8.596;2022-07-21T18:31:52;9.13;;;7.90;;
36303;SDS011;22335;49.800;8.596;2022-07-21T18:38:40;8.30;;;7.53;;
36303;SDS011;22335;49.800;8.596;2022-07-21T18:45:29;7.65;;;6.95;;
36303;SDS011;22335;49.800;8.596;2022-07-21T18:52:19;7.78;;;7.07;;
36303;SDS011;22335;49.800;8.596;2022-07-21T18:59:05;8.90;;;7.68;;
36303;SDS011;22335;49.800;8.596;2022-07-21T19:05:53;8.80;;;8.00;;
36303;SDS011;22335;49.800;8.596;2022-07-21T19:12:38;8.52;;;7.65;;
36303;SDS011;22335;49.800;8.596;2022-07-21T19:19:24;8.57;;;7.70;;
36303;SDS011;22335;49.800;8.596;2022-07-21T19:26:13;8.55;;;7.68;;
36303;SDS011;22335;49.800;8.596;2022-07-21T19:32:59;8.80;;;7.90;;
36303;SDS011;22335;49.800;8.596;2022-07-21T19:39:46;8.32;;;7.53;;
36303;SDS011;22335;49.800;8.596;2022-07-21T19:46:34;8.70;;;7.85;;
36303;SDS011;22335;49.800;8.596;2022-07-21T19:53:20;8.35;;;7.47;;
36303;SDS011;22335;49.800;8.596;2022-07-21T20:00:06;9.27;;;8.40;;
36303;SDS011;22335;49.800;8.596;2022-07-21T20:06:57;9.10;;;8.38;;
36303;SDS011;22335;49.800;8.596;2022-07-21T20:13:44;10.23;;;9.23;;
36303;SDS011;22335;49.800;8.596;2022-07-21T20:20:30;10.93;;;8.65;;
36303;SDS011;22335;49.800;8.596;2022-07-21T20:27:18;9.38;;;8.65;;
36303;SDS011;22335;49.800;8.596;2022-07-21T20:34:04;8.80;;;8.00;;
36303;SDS011;22335;49.800;8.596;2022-07-21T20:40:50;9.98;;;9.00;;
36303;SDS011;22335;49.800;8.596;2022-07-21T20:47:41;9.40;;;8.50;;
36303;SDS011;22335;49.800;8.596;2022-07-21T20:54:26;9.88;;;8.90;;
36303;SDS011;22335;49.800;8.596;2022-07-21T21:01:12;10.57;;;8.95;;
36303;SDS011;22335;49.800;8.596;2022-07-21T21:08:00;10.13;;;9.07;;
36303;SDS011;22335;49.800;8.596;2022-07-21T21:14:46;10.40;;;9.50;;
36303;SDS011;22335;49.800;8.596;2022-07-21T21:21:31;10.32;;;9.23;;
36303;SDS011;22335;49.800;8.596;2022-07-21T21:28:19;11.30;;;10.20;;
36303;SDS011;22335;49.800;8.596;2022-07-21T21:35:06;11.00;;;9.98;;
36303;SDS011;22335;49.800;8.596;2022-07-21T21:41:54;12.52;;;9.13;;
36303;SDS011;22335;49.800;8.596;2022-07-21T21:48:42;10.35;;;9.45;;
36303;SDS011;22335;49.800;8.596;2022-07-21T21:55:28;10.65;;;9.73;;
36303;SDS011;22335;49.800;8.596;2022-07-21T22:02:14;11.57;;;9.13;;
36303;SDS011;22335;49.800;8.596;2022-07-21T22:09:02;9.60;;;8.80;;
36303;SDS011;22335;49.800;8.596;2022-07-21T22:15:48;10.02;;;8.70;;
36303;SDS011;22335;49.800;8.596;2022-07-21T22:22:34;9.18;;;8.38;;
36303;SDS011;22335;49.800;8.596;2022-07-21T22:29:22;9.15;;;8.25;;
36303;SDS011;22335;49.800;8.596;2022-07-21T22:36:08;9.40;;;8.50;;
36303;SDS011;22335;49.800;8.596;2022-07-21T22:42:54;9.68;;;8.57;;
36303;SDS011;22335;49.800;8.596;2022-07-21T22:49:44;8.57;;;7.78;;
36303;SDS011;22335;49.800;8.596;2022-07-21T22:56:29;8.98;;;8.18;;
36303;SDS011;22335;49.800;8.596;2022-07-21T23:03:15;9.15;;;8.13;;
36303;SDS011;22335;49.800;8.596;2022-07-21T23:10:04;8.43;;;7.63;;
36303;SDS011;22335;49.800;8.596;2022-07-21T23:16:52;8.98;;;8.23;;
36303;SDS011;22335;49.800;8.596;2022-07-21T23:23:37;9.00;;;8.23;;
36303;SDS011;22335;49.800;8.596;2022-07-21T23:30:26;9.60;;;8.70;;
36303;SDS011;22335;49.800;8.596;2022-07-21T23:37:11;10.10;;;8.95;;
36303;SDS011;22335;49.800;8.596;2022-07-21T23:43:57;9.20;;;8.30;;
36303;SDS011;22335;49.800;8.596;2022-07-21T23:50:45;10.13;;;9.13;;
36303;SDS011;22335;49.800;8.596;2022-07-21T23:57:31;8.95;;;8.15;;
